createdAt,value
2022-09-22T00:01:52.196Z,21.90
2022-09-22T00:04:29.201Z,22.00
2022-09-22T00:07:05.557Z,20.30
2022-09-22T00:09:41.816Z,19.50
2022-09-22T00:12:18.599Z,18.80
2022-09-22T00:14:55.551Z,22.50
2022-09-22T00:17:32.673Z,22.60
2022-09-22T00:20:14.069Z,25.30
2022-09-22T00:22:54.478Z,23.60
2022-09-22T00:25:31.471Z,23.10
2022-09-22T00:28:08.261Z,23.20
2022-09-22T00:30:47.549Z,22.30
2022-09-22T00:33:23.758Z,19.30
2022-09-22T00:36:07.609Z,18.50
2022-09-22T00:38:46.707Z,20.50
2022-09-22T00:41:27.806Z,19.70
2022-09-22T00:44:40.340Z,20.10
2022-09-22T00:47:35.549Z,18.40
2022-09-22T00:50:21.055Z,18.40
2022-09-22T00:53:04.112Z,20.70
2022-09-22T00:55:45.516Z,19.70
2022-09-22T00:58:31.938Z,19.80
2022-09-22T01:01:17.866Z,21.70
2022-09-22T01:03:56.412Z,20.50
2022-09-22T01:06:33.311Z,21.30
2022-09-22T01:09:11.321Z,23.00
2022-09-22T01:11:47.790Z,21.10
2022-09-22T01:14:51.574Z,26.10
2022-09-22T01:17:41.220Z,24.90
2022-09-22T01:21:15.153Z,26.60
2022-09-22T01:24:49.824Z,26.50
2022-09-22T01:28:18.083Z,25.10
2022-09-22T01:31:04.496Z,25.60
2022-09-22T01:33:52.194Z,23.10
2022-09-22T01:36:38.943Z,24.20
2022-09-22T01:39:22.881Z,25.00
2022-09-22T01:42:07.485Z,23.70
2022-09-22T01:44:53.644Z,26.00
2022-09-22T01:47:40.632Z,23.80
2022-09-22T01:50:26.786Z,25.60
2022-09-22T01:53:09.627Z,23.40
2022-09-22T01:55:55.166Z,23.40
2022-09-22T01:58:36.672Z,23.40
2022-09-22T02:01:19.508Z,23.30
2022-09-22T02:04:03.309Z,27.30
2022-09-22T02:06:44.595Z,23.10
2022-09-22T02:09:25.954Z,24.30
2022-09-22T02:12:03.622Z,23.50
2022-09-22T02:14:39.935Z,22.10
2022-09-22T02:17:18.598Z,23.20
2022-09-22T02:19:55.125Z,22.20
2022-09-22T02:22:32.752Z,23.40
2022-09-22T02:25:13.093Z,24.60
2022-09-22T02:27:51.457Z,21.90
2022-09-22T02:30:29.593Z,23.90
2022-09-22T02:33:07.154Z,21.90
2022-09-22T02:35:53.939Z,24.50
2022-09-22T02:38:42.800Z,22.30
2022-09-22T02:41:30.793Z,23.00
2022-09-22T02:44:16.428Z,27.40
2022-09-22T02:47:03.077Z,28.10
2022-09-22T02:49:40.636Z,31.00
2022-09-22T02:52:20.366Z,28.50
2022-09-22T02:54:57.367Z,29.60
2022-09-22T02:57:33.764Z,26.40
2022-09-22T03:00:13.950Z,31.40
2022-09-22T03:02:50.272Z,28.80
2022-09-22T03:05:26.701Z,27.30
2022-09-22T03:08:05.033Z,29.20
2022-09-22T03:10:41.375Z,31.70
2022-09-22T03:13:17.842Z,31.40
2022-09-22T03:15:54.345Z,30.70
2022-09-22T03:18:30.660Z,30.10
2022-09-22T03:21:07.960Z,34.40
2022-09-22T03:23:44.232Z,33.70
2022-09-22T03:26:20.596Z,29.90
2022-09-22T03:28:56.734Z,29.90
2022-09-22T03:31:32.927Z,30.90
2022-09-22T03:34:09.071Z,30.80
2022-09-22T03:36:45.406Z,30.70
2022-09-22T03:39:21.710Z,30.00
2022-09-22T03:41:58.134Z,32.10
2022-09-22T03:44:34.546Z,30.20
2022-09-22T03:47:11.311Z,27.10
2022-09-22T03:49:47.487Z,31.90
2022-09-22T03:52:24.133Z,26.30
2022-09-22T03:55:00.242Z,28.00
2022-09-22T03:57:36.579Z,33.50
2022-09-22T04:00:17.227Z,27.50
2022-09-22T04:02:53.820Z,28.50
2022-09-22T04:05:30.962Z,28.20
2022-09-22T04:08:07.778Z,28.70
2022-09-22T04:10:45.056Z,27.70
2022-09-22T04:13:21.274Z,27.10
2022-09-22T04:15:57.521Z,22.70
2022-09-22T04:18:34.134Z,52.20
2022-09-22T04:21:11.505Z,26.50
2022-09-22T04:23:47.731Z,21.50
2022-09-22T04:26:24.316Z,19.20
2022-09-22T04:29:00.866Z,21.30
2022-09-22T04:31:37.057Z,21.40
2022-09-22T04:34:13.287Z,17.80
2022-09-22T04:36:49.885Z,20.20
2022-09-22T04:39:28.678Z,19.10
2022-09-22T04:42:05.339Z,17.20
2022-09-22T04:44:41.602Z,15.80
2022-09-22T04:47:18.282Z,17.00
2022-09-22T04:49:54.702Z,17.70
2022-09-22T04:52:30.957Z,18.40
2022-09-22T04:55:09.417Z,17.90
2022-09-22T04:57:48.221Z,17.50
2022-09-22T05:00:29.043Z,15.80
2022-09-22T05:03:10.587Z,15.50
2022-09-22T05:05:48.264Z,17.60
2022-09-22T05:08:24.454Z,17.90
2022-09-22T05:11:00.603Z,19.20
2022-09-22T05:13:38.452Z,16.30
2022-09-22T05:16:14.790Z,16.60
2022-09-22T05:18:51.343Z,15.40
2022-09-22T05:21:27.612Z,16.10
2022-09-22T05:24:05.193Z,15.90
2022-09-22T05:26:41.453Z,16.20
2022-09-22T05:29:18.422Z,15.60
2022-09-22T05:31:54.712Z,12.70
2022-09-22T05:34:31.106Z,13.30
2022-09-22T05:37:07.497Z,14.50
2022-09-22T05:39:43.707Z,14.80
2022-09-22T05:42:20.282Z,14.80
2022-09-22T05:44:56.745Z,13.70
2022-09-22T05:47:34.653Z,19.00
2022-09-22T05:50:14.921Z,10.90
2022-09-22T05:52:51.400Z,14.10
2022-09-22T05:55:27.620Z,9.40
2022-09-22T05:58:04.944Z,9.00
2022-09-22T06:00:42.470Z,8.70
2022-09-22T06:03:19.608Z,6.80
2022-09-22T06:05:55.729Z,8.20
2022-09-22T06:08:32.082Z,8.30
2022-09-22T06:11:08.969Z,8.20
2022-09-22T06:13:45.164Z,7.30
2022-09-22T06:16:21.476Z,10.10
2022-09-22T06:18:57.824Z,10.30
2022-09-22T06:21:35.079Z,8.60
2022-09-22T06:24:11.654Z,7.60
2022-09-22T06:26:48.163Z,9.00
2022-09-22T06:29:24.587Z,8.10
2022-09-22T06:32:01.850Z,7.50
2022-09-22T06:34:38.651Z,8.30
2022-09-22T06:37:16.212Z,7.10
2022-09-22T06:39:52.437Z,9.30
2022-09-22T06:42:28.670Z,7.60
2022-09-22T06:45:05.231Z,8.00
2022-09-22T06:47:42.120Z,8.10
2022-09-22T06:50:18.652Z,7.20
2022-09-22T06:53:00.919Z,7.10
2022-09-22T06:55:38.225Z,7.40
2022-09-22T06:58:15.890Z,7.40
2022-09-22T07:00:53.956Z,7.50
2022-09-22T07:03:31.263Z,7.50
2022-09-22T07:06:10.189Z,7.10
2022-09-22T07:08:48.213Z,6.50
2022-09-22T07:11:24.720Z,6.10
2022-09-22T07:14:03.121Z,7.30
2022-09-22T07:16:40.075Z,5.40
2022-09-22T07:19:16.937Z,7.40
2022-09-22T07:21:53.084Z,8.20
2022-09-22T07:24:29.458Z,7.20
2022-09-22T07:27:07.296Z,6.40
2022-09-22T07:29:47.715Z,7.80
2022-09-22T07:32:24.489Z,6.00
2022-09-22T07:35:00.856Z,7.60
2022-09-22T07:37:40.456Z,6.30
2022-09-22T07:40:17.208Z,8.30
2022-09-22T07:42:55.810Z,6.10
2022-09-22T07:45:31.998Z,7.70
2022-09-22T07:48:26.734Z,6.20
2022-09-22T07:51:03.203Z,8.00
2022-09-22T07:53:40.644Z,6.10
2022-09-22T07:56:21.391Z,6.30
2022-09-22T07:58:58.342Z,8.00
2022-09-22T08:01:36.155Z,8.70
2022-09-22T08:04:15.730Z,6.80
2022-09-22T08:06:55.730Z,7.00
2022-09-22T08:09:33.733Z,6.60
2022-09-22T08:12:11.516Z,6.10
2022-09-22T08:14:47.828Z,5.20
2022-09-22T08:17:24.594Z,6.00
2022-09-22T08:20:03.706Z,6.30
2022-09-22T08:22:40.063Z,5.90
2022-09-22T08:25:16.963Z,9.20
2022-09-22T08:27:54.429Z,6.40
2022-09-22T08:30:30.697Z,5.60
2022-09-22T08:33:07.794Z,8.00
2022-09-22T08:35:55.488Z,5.40
2022-09-22T08:38:32.688Z,4.00
2022-09-22T08:41:31.242Z,5.40
2022-09-22T08:44:26.175Z,5.40
2022-09-22T08:47:04.905Z,3.10
2022-09-22T08:50:06.304Z,4.20
2022-09-22T08:52:52.305Z,7.00
2022-09-22T08:55:31.917Z,4.30
2022-09-22T08:58:24.716Z,4.00
2022-09-22T09:01:27.763Z,5.40
2022-09-22T09:04:37.454Z,4.30
2022-09-22T09:07:26.427Z,5.40
2022-09-22T09:10:18.961Z,5.20
2022-09-22T09:13:19.995Z,3.20
2022-09-22T09:16:27.669Z,3.30
2022-09-22T09:19:14.182Z,4.40
2022-09-22T09:21:57.665Z,3.50
2022-09-22T09:27:44.526Z,3.40
2022-09-22T09:30:24.055Z,3.40
2022-09-22T09:33:05.237Z,3.20
2022-09-22T09:35:52.436Z,3.30
2022-09-22T09:38:40.454Z,4.00
2022-09-22T09:41:23.330Z,4.10
2022-09-22T09:44:00.230Z,3.40
2022-09-22T09:46:56.764Z,4.10
2022-09-22T09:49:33.525Z,5.90
2022-09-22T09:52:15.714Z,4.00
2022-09-22T09:54:52.330Z,3.90
2022-09-22T09:57:29.744Z,5.00
2022-09-22T10:00:34.486Z,4.90
2022-09-22T10:03:23.557Z,6.30
2022-09-22T10:06:06.370Z,4.50
2022-09-22T10:08:51.596Z,4.60
2022-09-22T10:11:36.542Z,4.40
2022-09-22T10:14:21.973Z,5.30
2022-09-22T10:16:58.702Z,5.20
2022-09-22T10:19:37.060Z,4.20
2022-09-22T10:22:31.331Z,4.90
2022-09-22T10:25:20.522Z,4.30
2022-09-22T10:28:22.169Z,3.20
2022-09-22T10:31:04.530Z,3.00
2022-09-22T10:33:56.881Z,4.40
2022-09-22T10:36:36.993Z,3.90
2022-09-22T10:39:20.674Z,3.50
2022-09-22T10:41:57.387Z,3.70
2022-09-22T10:44:39.317Z,4.40
2022-09-22T10:47:47.480Z,4.20
2022-09-22T10:51:09.184Z,4.10
2022-09-22T10:54:23.100Z,5.70
2022-09-22T10:57:10.387Z,5.20
2022-09-22T11:00:15.765Z,3.90
2022-09-22T11:03:54.411Z,5.20
2022-09-22T11:07:12.205Z,5.10
2022-09-22T11:10:17.244Z,4.80
2022-09-22T11:13:05.307Z,4.30
2022-09-22T11:16:08.627Z,4.80
2022-09-22T11:19:13.956Z,3.80
2022-09-22T11:22:17.420Z,4.10
2022-09-22T11:25:18.127Z,3.70
2022-09-22T11:28:20.877Z,4.30
2022-09-22T11:30:59.200Z,3.80
2022-09-22T11:34:06.364Z,3.50
2022-09-22T11:37:00.280Z,3.90
2022-09-22T11:39:55.024Z,4.10
2022-09-22T11:42:46.104Z,3.60
2022-09-22T11:45:45.719Z,3.90
2022-09-22T11:48:46.805Z,4.20
2022-09-22T11:51:47.178Z,5.50
2022-09-22T11:55:12.281Z,5.10
2022-09-22T11:57:56.074Z,5.00
2022-09-22T12:00:39.854Z,5.70
2022-09-22T12:03:25.320Z,4.10
2022-09-22T12:06:06.418Z,3.80
2022-09-22T12:11:36.272Z,5.20
2022-09-22T12:14:17.805Z,4.20
2022-09-22T12:17:03.364Z,6.00
2022-09-22T12:19:56.455Z,6.20
2022-09-22T12:22:49.393Z,3.80
2022-09-22T12:25:52.362Z,4.40
2022-09-22T12:28:32.520Z,4.30
2022-09-22T12:31:15.473Z,7.60
2022-09-22T12:33:58.350Z,5.30
2022-09-22T12:36:38.595Z,5.20
2022-09-22T12:39:23.155Z,5.10
2022-09-22T12:42:05.731Z,5.00
2022-09-22T12:44:53.847Z,6.20
2022-09-22T12:47:36.500Z,4.80
2022-09-22T12:50:39.370Z,5.20
2022-09-22T12:53:32.119Z,3.50
2022-09-22T12:56:47.902Z,4.40
2022-09-22T13:00:20.784Z,4.60
2022-09-22T13:02:58.107Z,4.70
2022-09-22T13:05:46.998Z,5.20
2022-09-22T13:08:48.605Z,6.50
2022-09-22T13:12:21.701Z,5.60
2022-09-22T13:15:17.317Z,5.80
2022-09-22T13:17:54.593Z,5.90
2022-09-22T13:20:36.694Z,6.10
2022-09-22T13:23:15.590Z,4.80
2022-09-22T13:25:52.645Z,5.10
2022-09-22T13:28:29.379Z,4.10
2022-09-22T13:31:14.228Z,7.50
2022-09-22T13:33:50.510Z,7.10
2022-09-22T13:36:28.890Z,5.80
2022-09-22T13:39:07.183Z,4.60
2022-09-22T13:41:51.781Z,5.60
2022-09-22T13:44:35.852Z,5.20
2022-09-22T13:47:23.498Z,6.90
2022-09-22T13:50:09.348Z,6.30
2022-09-22T13:52:48.320Z,5.70
2022-09-22T13:55:34.126Z,6.90
2022-09-22T13:58:25.567Z,8.10
2022-09-22T14:01:20.109Z,7.10
2022-09-22T14:03:57.888Z,7.10
2022-09-22T14:06:36.896Z,11.00
2022-09-22T14:09:13.479Z,13.50
2022-09-22T14:11:50.521Z,10.90
2022-09-22T14:14:31.153Z,7.70
2022-09-22T14:17:15.046Z,5.80
2022-09-22T14:20:00.314Z,5.90
2022-09-22T14:22:44.973Z,4.80
2022-09-22T14:25:23.150Z,5.60
2022-09-22T14:28:03.623Z,8.70
2022-09-22T14:30:43.995Z,7.50
2022-09-22T14:33:28.251Z,8.10
2022-09-22T14:36:16.231Z,5.70
2022-09-22T14:39:08.738Z,8.30
2022-09-22T14:41:59.131Z,7.00
2022-09-22T14:44:49.708Z,6.20
2022-09-22T14:47:39.430Z,7.20
2022-09-22T14:50:41.924Z,6.30
2022-09-22T14:53:25.317Z,7.20
2022-09-22T14:56:13.429Z,7.70
2022-09-22T14:58:56.924Z,6.60
2022-09-22T15:01:54.649Z,7.70
2022-09-22T15:04:33.230Z,7.10
2022-09-22T15:07:24.779Z,8.10
2022-09-22T15:10:06.584Z,7.30
2022-09-22T15:15:30.365Z,11.60
2022-09-22T15:18:19.372Z,6.50
2022-09-22T15:20:59.974Z,6.80
2022-09-22T15:23:42.793Z,6.50
2022-09-22T15:26:25.396Z,7.30
2022-09-22T15:29:03.220Z,6.30
2022-09-22T15:31:40.706Z,7.10
2022-09-22T15:34:18.176Z,8.40
2022-09-22T15:36:56.093Z,8.60
2022-09-22T15:39:32.360Z,19.90
2022-09-22T15:42:11.357Z,11.00
2022-09-22T15:44:48.176Z,7.70
2022-09-22T15:47:24.360Z,13.40
2022-09-22T15:50:01.258Z,11.80
2022-09-22T15:52:37.659Z,10.50
2022-09-22T15:55:20.314Z,14.00
2022-09-22T15:58:07.419Z,11.10
2022-09-22T16:00:43.812Z,10.70
2022-09-22T16:03:24.067Z,10.80
2022-09-22T16:06:05.484Z,8.60
2022-09-22T16:08:47.107Z,8.90
2022-09-22T16:11:29.734Z,8.30
2022-09-22T16:14:07.186Z,9.90
2022-09-22T16:16:44.209Z,9.10
2022-09-22T16:19:20.691Z,11.30
2022-09-22T16:21:58.142Z,8.40
2022-09-22T16:24:34.487Z,83.30
2022-09-22T16:27:11.072Z,13.00
2022-09-22T16:29:48.047Z,12.10
2022-09-22T16:32:24.297Z,10.30
2022-09-22T16:35:00.998Z,14.90
2022-09-22T16:37:37.167Z,9.30
2022-09-22T16:40:15.337Z,13.60
2022-09-22T16:42:51.840Z,12.70
2022-09-22T16:45:46.188Z,10.80
2022-09-22T16:48:22.635Z,8.90
2022-09-22T16:51:01.136Z,10.80
2022-09-22T16:53:38.709Z,12.20
2022-09-22T16:56:14.988Z,14.00
2022-09-22T16:58:51.555Z,12.40
2022-09-22T17:01:29.076Z,11.70
2022-09-22T17:04:07.285Z,10.10
2022-09-22T17:06:44.718Z,9.80
2022-09-22T17:09:21.629Z,10.30
2022-09-22T17:11:58.241Z,11.70
2022-09-22T17:14:37.107Z,10.10
2022-09-22T17:17:14.445Z,12.10
2022-09-22T17:19:51.247Z,11.80
2022-09-22T17:22:28.650Z,10.00
2022-09-22T17:25:05.769Z,15.20
2022-09-22T17:27:42.414Z,12.20
2022-09-22T17:30:19.435Z,11.80
2022-09-22T17:32:55.845Z,9.90
2022-09-22T17:35:32.387Z,10.30
2022-09-22T17:38:08.594Z,11.20
2022-09-22T17:40:48.025Z,11.90
2022-09-22T17:43:25.884Z,10.10
2022-09-22T17:46:02.444Z,10.40
2022-09-22T17:48:56.273Z,24.70
2022-09-22T17:51:57.273Z,16.30
2022-09-22T17:54:53.957Z,9.40
2022-09-22T17:57:33.118Z,8.00
2022-09-22T18:00:14.258Z,10.10
2022-09-22T18:02:52.732Z,10.50
2022-09-22T18:05:32.252Z,12.90
2022-09-22T18:08:08.852Z,10.70
2022-09-22T18:10:46.414Z,11.60
2022-09-22T18:13:23.065Z,8.10
2022-09-22T18:16:17.747Z,9.50
2022-09-22T18:18:54.722Z,15.20
2022-09-22T18:21:32.377Z,11.90
2022-09-22T18:24:09.584Z,11.20
2022-09-22T18:26:46.495Z,10.60
2022-09-22T18:29:23.758Z,10.60
2022-09-22T18:32:00.313Z,16.70
2022-09-22T18:34:37.984Z,21.80
2022-09-22T18:37:15.878Z,14.40
2022-09-22T18:39:52.670Z,10.40
2022-09-22T18:42:32.422Z,10.30
2022-09-22T18:45:12.616Z,8.60
2022-09-22T18:47:49.524Z,13.40
2022-09-22T18:50:26.247Z,11.10
2022-09-22T18:53:03.125Z,10.20
2022-09-22T18:55:39.587Z,9.90
2022-09-22T18:58:16.059Z,10.90
2022-09-22T19:00:55.298Z,11.60
2022-09-22T19:03:31.777Z,11.30
2022-09-22T19:06:09.724Z,10.10
2022-09-22T19:08:46.320Z,12.80
2022-09-22T19:11:22.867Z,14.70
2022-09-22T19:13:59.372Z,12.60
2022-09-22T19:16:35.853Z,10.50
2022-09-22T19:19:13.099Z,14.10
2022-09-22T19:21:51.566Z,11.40
2022-09-22T19:24:27.962Z,14.00
2022-09-22T19:27:05.006Z,13.10
2022-09-22T19:29:41.359Z,16.40
2022-09-22T19:32:17.823Z,13.80
2022-09-22T19:34:54.904Z,17.50
2022-09-22T19:37:31.250Z,16.60
2022-09-22T19:40:13.234Z,19.00
2022-09-22T19:42:50.140Z,18.40
2022-09-22T19:45:30.891Z,16.70
2022-09-22T19:48:07.970Z,15.60
2022-09-22T19:50:44.413Z,13.60
2022-09-22T19:53:21.259Z,17.10
2022-09-22T19:55:58.127Z,15.00
2022-09-22T19:58:34.484Z,15.10
2022-09-22T20:01:29.665Z,16.00
2022-09-22T20:04:07.659Z,15.50
2022-09-22T20:06:44.217Z,15.80
2022-09-22T20:09:21.151Z,14.00
2022-09-22T20:11:57.421Z,13.80
2022-09-22T20:14:34.655Z,17.70
2022-09-22T20:17:14.018Z,14.20
2022-09-22T20:19:50.362Z,15.40
2022-09-22T20:22:30.382Z,24.30
2022-09-22T20:25:08.101Z,17.80
2022-09-22T20:27:44.775Z,15.50
2022-09-22T20:30:22.322Z,17.70
2022-09-22T20:32:59.333Z,18.70
2022-09-22T20:35:35.931Z,16.30
2022-09-22T20:38:14.116Z,16.40
2022-09-22T20:40:51.320Z,16.60
2022-09-22T20:43:28.940Z,17.50
2022-09-22T20:46:07.887Z,16.90
2022-09-22T20:48:45.331Z,18.30
2022-09-22T20:51:21.943Z,18.00
2022-09-22T20:53:58.957Z,15.60
2022-09-22T20:56:38.416Z,26.50
2022-09-22T20:59:17.260Z,20.70
2022-09-22T21:01:53.837Z,14.20
2022-09-22T21:04:31.058Z,20.30
2022-09-22T21:07:07.898Z,18.10
2022-09-22T21:10:02.208Z,17.80
2022-09-22T21:12:39.973Z,15.70
2022-09-22T21:15:16.882Z,18.30
2022-09-22T21:17:53.749Z,16.90
2022-09-22T21:20:30.400Z,17.30
2022-09-22T21:23:06.832Z,18.80
2022-09-22T21:25:43.892Z,16.30
2022-09-22T21:28:21.015Z,24.70
2022-09-22T21:31:04.676Z,24.30
2022-09-22T21:33:41.635Z,18.10
2022-09-22T21:36:20.735Z,19.20
2022-09-22T21:39:02.074Z,26.30
2022-09-22T21:41:39.023Z,21.20
2022-09-22T21:44:15.864Z,19.30
2022-09-22T21:46:52.468Z,20.40
2022-09-22T21:49:28.745Z,17.40
2022-09-22T21:52:06.533Z,19.70
2022-09-22T21:54:42.808Z,19.40
2022-09-22T21:57:19.048Z,21.10
2022-09-22T22:00:02.321Z,20.80
2022-09-22T22:02:52.840Z,18.60
2022-09-22T22:05:30.331Z,19.10
2022-09-22T22:08:06.836Z,15.70
2022-09-22T22:10:43.618Z,18.00
2022-09-22T22:13:21.230Z,18.50
2022-09-22T22:16:07.497Z,18.10
2022-09-22T22:18:45.147Z,17.70
2022-09-22T22:21:24.581Z,16.70
2022-09-22T22:24:23.210Z,16.30
2022-09-22T22:27:05.848Z,19.70
2022-09-22T22:29:43.470Z,16.90
2022-09-22T22:32:19.641Z,19.50
2022-09-22T22:34:55.939Z,15.60
2022-09-22T22:37:32.099Z,17.20
2022-09-22T22:40:10.474Z,18.80
2022-09-22T22:42:48.006Z,19.50
2022-09-22T22:45:24.477Z,16.20
2022-09-22T22:48:00.618Z,16.10
2022-09-22T22:50:39.024Z,18.00
2022-09-22T22:53:17.110Z,17.80
2022-09-22T22:56:05.849Z,17.80
2022-09-22T22:58:42.952Z,18.80
2022-09-22T23:01:22.757Z,17.20
2022-09-22T23:04:03.994Z,17.10
2022-09-22T23:06:44.486Z,21.90
2022-09-22T23:09:22.066Z,19.00
2022-09-22T23:11:58.416Z,17.80
2022-09-22T23:14:36.837Z,17.30
2022-09-22T23:17:12.964Z,18.80
2022-09-22T23:19:49.984Z,18.70
2022-09-22T23:22:26.105Z,19.20
2022-09-22T23:25:02.532Z,19.40
2022-09-22T23:27:38.753Z,19.00
2022-09-22T23:30:17.814Z,19.40
2022-09-22T23:32:54.265Z,18.20
2022-09-22T23:35:30.735Z,20.70
2022-09-22T23:38:09.057Z,20.70
2022-09-22T23:40:46.300Z,24.30
2022-09-22T23:43:23.495Z,24.00
2022-09-22T23:46:00.418Z,25.60
2022-09-22T23:48:38.048Z,21.20
2022-09-22T23:51:14.727Z,22.50
2022-09-22T23:53:51.022Z,20.50
2022-09-22T23:56:27.929Z,15.80
2022-09-22T23:59:04.278Z,17.50
